DAL1285 KMDW-KATL
Flight info
| Callsign | DAL1285 |
|---|---|
| Flight time | 1h 27m |
| Altitude | 36000 |
| Route | CMSKY CARYN CYBIL PXV HITMN NEWBB IHAVE MTHEW CHPPR1 |
| Aircraft | A320/M-SDE3FGHIRWY/LB1 |
Departure
| Time | 2026-05-06 16:10 |
|---|---|
| Airport | Chicago Midway International Airport (KMDW) |
Arrival
| Time | 2026-05-06 17:37 |
|---|---|
| Airport | Hartsfield Jackson Atlanta International Airport (KATL) |
| Time | Latitude | Longitude | Altitude | Speed | Heading |
|---|---|---|---|---|---|
| 2026-05-06 15:50 | 41.78625 | -87.74251 | 613 ft | 0 kts | 124° |
| 2026-05-06 16:02 | 41.78627 | -87.74254 | 613 ft | 2 kts | 124° |
| 2026-05-06 16:03 | 41.78635 | -87.74271 | 613 ft | 2 kts | 124° |
| 2026-05-06 16:03 | 41.78643 | -87.74287 | 613 ft | 2 kts | 124° |
| 2026-05-06 16:03 | 41.78651 | -87.74303 | 613 ft | 2 kts | 124° |
| 2026-05-06 16:03 | 41.78662 | -87.74319 | 613 ft | 2 kts | 154° |
| 2026-05-06 16:04 | 41.78670 | -87.74322 | 613 ft | 1 kts | 172° |
| 2026-05-06 16:04 | 41.78677 | -87.74323 | 613 ft | 0 kts | 174° |
| 2026-05-06 16:06 | 41.78673 | -87.74322 | 613 ft | 0 kts | 176° |
| 2026-05-06 16:06 | 41.78648 | -87.74336 | 613 ft | 7 kts | 212° |
| 2026-05-06 16:07 | 41.78592 | -87.74402 | 613 ft | 13 kts | 223° |
| 2026-05-06 16:07 | 41.78514 | -87.74500 | 614 ft | 14 kts | 223° |
| 2026-05-06 16:07 | 41.78438 | -87.74548 | 614 ft | 12 kts | 148° |
| 2026-05-06 16:07 | 41.78375 | -87.74459 | 614 ft | 13 kts | 134° |
| 2026-05-06 16:08 | 41.78287 | -87.74423 | 614 ft | 14 kts | 179° |
| 2026-05-06 16:08 | 41.78188 | -87.74421 | 614 ft | 14 kts | 179° |
| 2026-05-06 16:08 | 41.78085 | -87.74415 | 615 ft | 15 kts | 176° |
| 2026-05-06 16:08 | 41.77985 | -87.74384 | 615 ft | 15 kts | 158° |
| 2026-05-06 16:09 | 41.77939 | -87.74388 | 615 ft | 4 kts | 272° |
| 2026-05-06 16:09 | 41.77950 | -87.74412 | 615 ft | 0 kts | 313° |
| 2026-05-06 16:09 | 41.78002 | -87.74485 | 615 ft | 44 kts | 313° |
| 2026-05-06 16:09 | 41.78410 | -87.75060 | 615 ft | 123 kts | 313° |
| 2026-05-06 16:10 | 41.79108 | -87.76030 | 930 ft | 153 kts | 312° |
| 2026-05-06 16:10 | 41.79720 | -87.77116 | 1741 ft | 147 kts | 290° |
| 2026-05-06 16:10 | 41.79711 | -87.78435 | 2252 ft | 153 kts | 250° |
| 2026-05-06 16:10 | 41.79123 | -87.79740 | 2537 ft | 176 kts | 237° |
| 2026-05-06 16:11 | 41.78371 | -87.81136 | 2900 ft | 196 kts | 236° |
| 2026-05-06 16:11 | 41.77427 | -87.82608 | 2922 ft | 221 kts | 217° |
| 2026-05-06 16:11 | 41.75918 | -87.83259 | 2901 ft | 240 kts | 185° |
| 2026-05-06 16:11 | 41.74184 | -87.83340 | 3312 ft | 260 kts | 183° |
| 2026-05-06 16:12 | 41.72341 | -87.83431 | 4022 ft | 270 kts | 185° |
| 2026-05-06 16:12 | 41.70474 | -87.83586 | 4894 ft | 272 kts | 186° |
| 2026-05-06 16:12 | 41.68608 | -87.83791 | 5743 ft | 274 kts | 187° |
| 2026-05-06 16:12 | 41.66711 | -87.84034 | 6582 ft | 277 kts | 188° |
| 2026-05-06 16:13 | 41.64794 | -87.84294 | 7424 ft | 279 kts | 189° |
| 2026-05-06 16:13 | 41.62873 | -87.84566 | 8267 ft | 280 kts | 190° |
| 2026-05-06 16:13 | 41.60930 | -87.84847 | 9107 ft | 282 kts | 190° |
| 2026-05-06 16:13 | 41.58988 | -87.85129 | 9935 ft | 284 kts | 191° |
| 2026-05-06 16:14 | 41.57044 | -87.85413 | 10706 ft | 285 kts | 192° |
| 2026-05-06 16:14 | 41.55063 | -87.85706 | 11491 ft | 286 kts | 192° |
| 2026-05-06 16:14 | 41.53107 | -87.85994 | 12239 ft | 288 kts | 193° |
| 2026-05-06 16:14 | 41.51113 | -87.86288 | 12942 ft | 290 kts | 193° |
| 2026-05-06 16:15 | 41.49113 | -87.86583 | 13623 ft | 292 kts | 194° |
| 2026-05-06 16:15 | 41.47094 | -87.86879 | 14310 ft | 294 kts | 194° |
| 2026-05-06 16:15 | 41.45047 | -87.87183 | 14986 ft | 296 kts | 194° |
| 2026-05-06 16:15 | 41.43021 | -87.87480 | 15652 ft | 297 kts | 194° |
| 2026-05-06 16:16 | 41.40956 | -87.87764 | 16285 ft | 300 kts | 193° |
| 2026-05-06 16:16 | 41.38885 | -87.87963 | 16909 ft | 302 kts | 193° |
| 2026-05-06 16:16 | 41.36733 | -87.88171 | 17256 ft | 314 kts | 193° |
| 2026-05-06 16:16 | 41.34533 | -87.88384 | 17500 ft | 327 kts | 192° |
| 2026-05-06 16:17 | 41.32188 | -87.88608 | 17741 ft | 341 kts | 192° |
| 2026-05-06 16:17 | 41.29783 | -87.88834 | 17967 ft | 353 kts | 192° |
| 2026-05-06 16:17 | 41.27307 | -87.89062 | 18289 ft | 361 kts | 192° |
| 2026-05-06 16:17 | 41.24774 | -87.89225 | 18794 ft | 367 kts | 189° |
| 2026-05-06 16:18 | 41.22218 | -87.89194 | 19299 ft | 371 kts | 187° |
| 2026-05-06 16:18 | 41.19643 | -87.89114 | 19837 ft | 372 kts | 187° |
| 2026-05-06 16:18 | 41.17065 | -87.89036 | 20319 ft | 374 kts | 187° |
| 2026-05-06 16:18 | 41.14459 | -87.88958 | 20813 ft | 376 kts | 187° |
| 2026-05-06 16:19 | 41.11821 | -87.88874 | 21240 ft | 379 kts | 188° |
| 2026-05-06 16:19 | 41.09191 | -87.88796 | 21678 ft | 382 kts | 188° |
| 2026-05-06 16:19 | 41.06525 | -87.88715 | 22102 ft | 385 kts | 188° |
| 2026-05-06 16:19 | 41.03836 | -87.88635 | 22527 ft | 387 kts | 188° |
| 2026-05-06 16:20 | 41.01162 | -87.88554 | 22975 ft | 388 kts | 188° |
| 2026-05-06 16:20 | 40.98462 | -87.88469 | 23394 ft | 390 kts | 188° |
| 2026-05-06 16:20 | 40.95745 | -87.88387 | 23774 ft | 392 kts | 189° |
| 2026-05-06 16:20 | 40.93022 | -87.88299 | 24155 ft | 394 kts | 189° |
| 2026-05-06 16:21 | 40.90260 | -87.88216 | 24518 ft | 396 kts | 190° |
| 2026-05-06 16:21 | 40.87509 | -87.88132 | 24919 ft | 397 kts | 190° |
| 2026-05-06 16:21 | 40.84739 | -87.88048 | 25248 ft | 400 kts | 190° |
| 2026-05-06 16:21 | 40.82073 | -87.87968 | 25601 ft | 401 kts | 190° |
| 2026-05-06 16:22 | 40.79275 | -87.87881 | 25992 ft | 402 kts | 191° |
| 2026-05-06 16:22 | 40.76458 | -87.87794 | 26341 ft | 403 kts | 191° |
| 2026-05-06 16:22 | 40.73746 | -87.87714 | 26693 ft | 403 kts | 192° |
| 2026-05-06 16:22 | 40.70946 | -87.87631 | 26984 ft | 405 kts | 192° |
| 2026-05-06 16:23 | 40.68125 | -87.87547 | 27290 ft | 407 kts | 193° |
| 2026-05-06 16:23 | 40.65294 | -87.87464 | 27584 ft | 409 kts | 193° |
| 2026-05-06 16:23 | 40.62429 | -87.87380 | 27884 ft | 410 kts | 193° |
| 2026-05-06 16:23 | 40.59585 | -87.87295 | 28217 ft | 410 kts | 193° |
| 2026-05-06 16:24 | 40.56748 | -87.87211 | 28518 ft | 411 kts | 194° |
| 2026-05-06 16:24 | 40.53880 | -87.87126 | 28758 ft | 413 kts | 194° |
| 2026-05-06 16:24 | 40.50985 | -87.87044 | 28949 ft | 417 kts | 194° |
| 2026-05-06 16:24 | 40.48104 | -87.86961 | 29210 ft | 418 kts | 194° |
| 2026-05-06 16:25 | 40.45160 | -87.86868 | 29549 ft | 417 kts | 194° |
| 2026-05-06 16:25 | 40.42294 | -87.86779 | 29750 ft | 419 kts | 195° |
| 2026-05-06 16:25 | 40.39359 | -87.86694 | 29928 ft | 420 kts | 194° |
| 2026-05-06 16:25 | 40.36434 | -87.86605 | 30282 ft | 418 kts | 195° |
| 2026-05-06 16:26 | 40.33559 | -87.86511 | 30643 ft | 415 kts | 195° |
| 2026-05-06 16:26 | 40.30667 | -87.86420 | 30920 ft | 415 kts | 195° |
| 2026-05-06 16:26 | 40.27809 | -87.86304 | 31199 ft | 415 kts | 195° |
| 2026-05-06 16:26 | 40.24906 | -87.86176 | 31449 ft | 415 kts | 195° |
| 2026-05-06 16:27 | 40.22033 | -87.86050 | 31708 ft | 414 kts | 195° |
| 2026-05-06 16:27 | 40.19163 | -87.85920 | 31987 ft | 413 kts | 195° |
| 2026-05-06 16:27 | 40.16320 | -87.85792 | 32269 ft | 411 kts | 195° |
| 2026-05-06 16:27 | 40.13461 | -87.85663 | 32499 ft | 412 kts | 195° |
| 2026-05-06 16:28 | 40.10586 | -87.85540 | 32735 ft | 411 kts | 196° |
| 2026-05-06 16:28 | 40.07732 | -87.85416 | 33010 ft | 410 kts | 196° |
| 2026-05-06 16:28 | 40.04898 | -87.85287 | 33297 ft | 408 kts | 196° |
| 2026-05-06 16:28 | 40.02074 | -87.85164 | 33518 ft | 408 kts | 196° |
| 2026-05-06 16:29 | 39.99227 | -87.85040 | 33732 ft | 408 kts | 196° |
| 2026-05-06 16:29 | 39.96373 | -87.84918 | 33987 ft | 407 kts | 196° |
| 2026-05-06 16:29 | 39.93557 | -87.84797 | 34203 ft | 407 kts | 196° |
| 2026-05-06 16:29 | 39.90740 | -87.84676 | 34433 ft | 407 kts | 196° |
| 2026-05-06 16:30 | 39.87906 | -87.84553 | 34665 ft | 406 kts | 196° |
| 2026-05-06 16:30 | 39.86018 | -87.84472 | 34771 ft | 407 kts | 196° |
| 2026-05-06 16:30 | 39.82484 | -87.84321 | 34960 ft | 409 kts | 196° |
| 2026-05-06 16:30 | 39.79603 | -87.84197 | 35115 ft | 410 kts | 196° |
| 2026-05-06 16:31 | 39.76888 | -87.84080 | 35253 ft | 411 kts | 196° |
| 2026-05-06 16:31 | 39.74034 | -87.83955 | 35425 ft | 411 kts | 196° |
| 2026-05-06 16:31 | 39.71203 | -87.83831 | 35602 ft | 411 kts | 196° |
| 2026-05-06 16:31 | 39.68331 | -87.83704 | 35719 ft | 412 kts | 196° |
| 2026-05-06 16:32 | 39.65466 | -87.83583 | 35841 ft | 413 kts | 196° |
| 2026-05-06 16:32 | 39.62605 | -87.83457 | 35964 ft | 414 kts | 196° |
| 2026-05-06 16:32 | 39.56837 | -87.83206 | 36030 ft | 415 kts | 196° |
| 2026-05-06 16:33 | 39.51078 | -87.82955 | 36034 ft | 415 kts | 196° |
| 2026-05-06 16:34 | 39.42463 | -87.82584 | 36031 ft | 414 kts | 196° |
| 2026-05-06 16:34 | 39.36694 | -87.82336 | 36035 ft | 414 kts | 196° |
| 2026-05-06 16:35 | 39.30951 | -87.82089 | 36032 ft | 413 kts | 196° |
| 2026-05-06 16:35 | 39.25217 | -87.81842 | 36036 ft | 413 kts | 196° |
| 2026-05-06 16:36 | 39.19474 | -87.81593 | 36032 ft | 413 kts | 196° |
| 2026-05-06 16:36 | 39.13774 | -87.81350 | 36037 ft | 410 kts | 196° |
| 2026-05-06 16:37 | 39.08049 | -87.81107 | 36040 ft | 412 kts | 196° |
| 2026-05-06 16:37 | 39.02354 | -87.80864 | 36044 ft | 411 kts | 196° |
| 2026-05-06 16:38 | 38.96617 | -87.80620 | 36042 ft | 412 kts | 196° |
| 2026-05-06 16:38 | 38.90908 | -87.80380 | 36041 ft | 412 kts | 196° |
| 2026-05-06 16:39 | 38.85165 | -87.80137 | 36040 ft | 414 kts | 196° |
| 2026-05-06 16:39 | 38.79440 | -87.79893 | 36044 ft | 411 kts | 195° |
| 2026-05-06 16:40 | 38.73703 | -87.79649 | 36047 ft | 411 kts | 196° |
| 2026-05-06 16:40 | 38.67998 | -87.79408 | 36049 ft | 413 kts | 196° |
| 2026-05-06 16:41 | 38.62252 | -87.79167 | 36051 ft | 412 kts | 196° |
| 2026-05-06 16:41 | 38.56523 | -87.78925 | 36049 ft | 411 kts | 195° |
| 2026-05-06 16:42 | 38.50843 | -87.78683 | 36045 ft | 413 kts | 196° |
| 2026-05-06 16:42 | 38.45118 | -87.78446 | 36040 ft | 414 kts | 195° |
| 2026-05-06 16:43 | 38.39349 | -87.78204 | 36032 ft | 413 kts | 195° |
| 2026-05-06 16:43 | 38.33633 | -87.77962 | 36028 ft | 412 kts | 195° |
| 2026-05-06 16:44 | 38.27884 | -87.77722 | 36026 ft | 416 kts | 196° |
| 2026-05-06 16:44 | 38.22094 | -87.77482 | 36029 ft | 416 kts | 195° |
| 2026-05-06 16:45 | 38.16344 | -87.77238 | 36029 ft | 413 kts | 195° |
| 2026-05-06 16:45 | 38.10598 | -87.76994 | 36030 ft | 412 kts | 195° |
| 2026-05-06 16:46 | 38.04895 | -87.76759 | 36029 ft | 414 kts | 195° |
| 2026-05-06 16:46 | 37.99080 | -87.76318 | 36032 ft | 425 kts | 191° |
| 2026-05-06 16:47 | 37.93108 | -87.74975 | 36039 ft | 444 kts | 183° |
| 2026-05-06 16:47 | 37.87112 | -87.72589 | 36040 ft | 462 kts | 175° |
| 2026-05-06 16:48 | 37.81194 | -87.69176 | 36043 ft | 472 kts | 170° |
| 2026-05-06 16:48 | 37.75276 | -87.65512 | 36045 ft | 473 kts | 170° |
| 2026-05-06 16:49 | 37.69343 | -87.61855 | 36042 ft | 475 kts | 170° |
| 2026-05-06 16:49 | 37.63398 | -87.58205 | 36035 ft | 476 kts | 170° |
| 2026-05-06 16:50 | 37.57475 | -87.54578 | 36024 ft | 477 kts | 170° |
| 2026-05-06 16:50 | 37.51506 | -87.50933 | 36022 ft | 476 kts | 170° |
| 2026-05-06 16:51 | 37.45525 | -87.47284 | 36020 ft | 476 kts | 170° |
| 2026-05-06 16:51 | 37.39576 | -87.43664 | 36018 ft | 474 kts | 170° |
| 2026-05-06 16:52 | 37.33612 | -87.40049 | 36016 ft | 478 kts | 170° |
| 2026-05-06 16:52 | 37.27672 | -87.36330 | 36008 ft | 487 kts | 165° |
| 2026-05-06 16:53 | 37.21856 | -87.31687 | 36011 ft | 497 kts | 162° |
| 2026-05-06 16:53 | 37.16108 | -87.26901 | 36012 ft | 498 kts | 161° |
| 2026-05-06 16:54 | 37.10368 | -87.22076 | 36006 ft | 501 kts | 158° |
| 2026-05-06 16:54 | 37.07673 | -87.19149 | 36011 ft | 520 kts | 148° |
| 2026-05-06 16:54 | 37.05179 | -87.15843 | 36010 ft | 528 kts | 145° |
| 2026-05-06 16:55 | 37.00304 | -87.08972 | 36007 ft | 530 kts | 143° |
| 2026-05-06 16:55 | 36.95440 | -87.02030 | 36003 ft | 530 kts | 143° |
| 2026-05-06 16:56 | 36.90599 | -86.95108 | 36003 ft | 530 kts | 143° |
| 2026-05-06 16:56 | 36.85763 | -86.88187 | 36001 ft | 530 kts | 143° |
| 2026-05-06 16:57 | 36.80935 | -86.81271 | 36000 ft | 532 kts | 143° |
| 2026-05-06 16:57 | 36.76071 | -86.74299 | 36000 ft | 530 kts | 142° |
| 2026-05-06 16:58 | 36.71257 | -86.67391 | 35997 ft | 533 kts | 142° |
| 2026-05-06 16:58 | 36.66526 | -86.60259 | 35995 ft | 539 kts | 137° |
| 2026-05-06 16:59 | 36.62093 | -86.52743 | 35993 ft | 541 kts | 136° |
| 2026-05-06 16:59 | 36.57677 | -86.45144 | 35995 ft | 542 kts | 136° |
| 2026-05-06 17:00 | 36.53292 | -86.37579 | 36000 ft | 540 kts | 135° |
| 2026-05-06 17:00 | 36.48886 | -86.29974 | 36002 ft | 542 kts | 136° |
| 2026-05-06 17:01 | 36.44524 | -86.22424 | 36004 ft | 538 kts | 136° |
| 2026-05-06 17:01 | 36.40185 | -86.14911 | 35997 ft | 539 kts | 135° |
| 2026-05-06 17:02 | 36.35815 | -86.07342 | 35992 ft | 542 kts | 136° |
| 2026-05-06 17:02 | 36.31438 | -85.99750 | 36193 ft | 543 kts | 135° |
| 2026-05-06 17:02 | 36.29248 | -85.95943 | 36409 ft | 541 kts | 135° |
| 2026-05-06 17:03 | 36.27053 | -85.92125 | 36640 ft | 539 kts | 135° |
| 2026-05-06 17:03 | 36.24905 | -85.88388 | 36847 ft | 538 kts | 135° |
| 2026-05-06 17:03 | 36.22726 | -85.84596 | 36989 ft | 539 kts | 135° |
| 2026-05-06 17:04 | 36.18395 | -85.77053 | 37206 ft | 540 kts | 134° |
| 2026-05-06 17:04 | 36.14034 | -85.69451 | 37411 ft | 541 kts | 134° |
| 2026-05-06 17:04 | 36.11786 | -85.65811 | 37521 ft | 532 kts | 141° |
| 2026-05-06 17:05 | 36.09300 | -85.62498 | 37631 ft | 527 kts | 145° |
| 2026-05-06 17:05 | 36.06707 | -85.59252 | 37774 ft | 525 kts | 146° |
| 2026-05-06 17:05 | 36.04152 | -85.56105 | 37943 ft | 524 kts | 146° |
| 2026-05-06 17:06 | 35.98966 | -85.49747 | 37987 ft | 527 kts | 146° |
| 2026-05-06 17:06 | 35.93745 | -85.43350 | 37983 ft | 528 kts | 146° |
| 2026-05-06 17:07 | 35.88546 | -85.36971 | 37982 ft | 527 kts | 146° |
| 2026-05-06 17:07 | 35.85847 | -85.33991 | 37962 ft | 510 kts | 156° |
| 2026-05-06 17:07 | 35.82873 | -85.31746 | 37973 ft | 488 kts | 169° |
| 2026-05-06 17:07 | 35.79776 | -85.30281 | 37987 ft | 471 kts | 177° |
| 2026-05-06 17:08 | 35.76652 | -85.29152 | 37987 ft | 467 kts | 179° |
| 2026-05-06 17:08 | 35.70396 | -85.27065 | 37983 ft | 466 kts | 180° |
| 2026-05-06 17:08 | 35.67249 | -85.26029 | 37592 ft | 471 kts | 180° |
| 2026-05-06 17:09 | 35.64065 | -85.24985 | 36854 ft | 472 kts | 179° |
| 2026-05-06 17:09 | 35.60915 | -85.24246 | 36124 ft | 452 kts | 189° |
| 2026-05-06 17:09 | 35.57793 | -85.24004 | 35444 ft | 447 kts | 191° |
| 2026-05-06 17:09 | 35.54699 | -85.23856 | 34771 ft | 448 kts | 191° |
| 2026-05-06 17:10 | 35.51590 | -85.23716 | 34088 ft | 449 kts | 191° |
| 2026-05-06 17:10 | 35.48452 | -85.23564 | 33410 ft | 451 kts | 189° |
| 2026-05-06 17:10 | 35.45330 | -85.23404 | 33038 ft | 455 kts | 189° |
| 2026-05-06 17:11 | 35.38989 | -85.23038 | 32983 ft | 455 kts | 188° |
| 2026-05-06 17:11 | 35.32690 | -85.22659 | 32655 ft | 448 kts | 188° |
| 2026-05-06 17:11 | 35.29591 | -85.22474 | 32401 ft | 448 kts | 188° |
| 2026-05-06 17:12 | 35.26477 | -85.22291 | 32147 ft | 448 kts | 188° |
| 2026-05-06 17:12 | 35.23355 | -85.22108 | 31892 ft | 448 kts | 188° |
| 2026-05-06 17:12 | 35.20265 | -85.21928 | 31640 ft | 447 kts | 188° |
| 2026-05-06 17:12 | 35.17125 | -85.21744 | 31384 ft | 449 kts | 187° |
| 2026-05-06 17:13 | 35.14003 | -85.21561 | 31133 ft | 451 kts | 187° |
| 2026-05-06 17:13 | 35.10878 | -85.21378 | 30882 ft | 452 kts | 187° |
| 2026-05-06 17:13 | 35.07729 | -85.21194 | 30537 ft | 452 kts | 187° |
| 2026-05-06 17:13 | 35.04589 | -85.21011 | 29972 ft | 454 kts | 187° |
| 2026-05-06 17:14 | 35.01456 | -85.20826 | 29239 ft | 453 kts | 186° |
| 2026-05-06 17:14 | 34.98297 | -85.20636 | 28740 ft | 447 kts | 186° |
| 2026-05-06 17:14 | 34.95227 | -85.20451 | 28245 ft | 442 kts | 186° |
| 2026-05-06 17:14 | 34.92170 | -85.20266 | 27729 ft | 437 kts | 186° |
| 2026-05-06 17:15 | 34.89166 | -85.20087 | 27211 ft | 432 kts | 187° |
| 2026-05-06 17:15 | 34.86155 | -85.19909 | 26707 ft | 427 kts | 186° |
| 2026-05-06 17:15 | 34.83226 | -85.19737 | 26213 ft | 423 kts | 186° |
| 2026-05-06 17:15 | 34.80300 | -85.19563 | 25699 ft | 419 kts | 187° |
| 2026-05-06 17:16 | 34.77386 | -85.19392 | 25188 ft | 414 kts | 187° |
| 2026-05-06 17:16 | 34.74552 | -85.19228 | 24695 ft | 410 kts | 186° |
| 2026-05-06 17:16 | 34.71696 | -85.19059 | 24210 ft | 406 kts | 187° |
| 2026-05-06 17:16 | 34.68904 | -85.18897 | 23722 ft | 402 kts | 187° |
| 2026-05-06 17:17 | 34.66107 | -85.18735 | 23230 ft | 399 kts | 187° |
| 2026-05-06 17:17 | 34.63343 | -85.18571 | 22749 ft | 396 kts | 187° |
| 2026-05-06 17:17 | 34.60586 | -85.18411 | 22262 ft | 392 kts | 186° |
| 2026-05-06 17:17 | 34.57876 | -85.18252 | 21766 ft | 391 kts | 188° |
| 2026-05-06 17:18 | 34.55195 | -85.18100 | 21289 ft | 388 kts | 187° |
| 2026-05-06 17:18 | 34.52513 | -85.17947 | 20794 ft | 386 kts | 187° |
| 2026-05-06 17:18 | 34.49828 | -85.17791 | 20298 ft | 384 kts | 188° |
| 2026-05-06 17:18 | 34.47157 | -85.17632 | 19801 ft | 383 kts | 187° |
| 2026-05-06 17:19 | 34.44529 | -85.17480 | 19321 ft | 380 kts | 187° |
| 2026-05-06 17:19 | 34.41862 | -85.17326 | 18825 ft | 378 kts | 187° |
| 2026-05-06 17:19 | 34.39262 | -85.17169 | 18340 ft | 377 kts | 186° |
| 2026-05-06 17:19 | 34.36637 | -85.16616 | 17836 ft | 390 kts | 172° |
| 2026-05-06 17:20 | 34.34139 | -85.15286 | 17341 ft | 403 kts | 157° |
| 2026-05-06 17:20 | 34.31825 | -85.13308 | 16855 ft | 407 kts | 150° |
| 2026-05-06 17:20 | 34.29602 | -85.11203 | 16362 ft | 406 kts | 149° |
| 2026-05-06 17:20 | 34.27385 | -85.09078 | 15860 ft | 403 kts | 149° |
| 2026-05-06 17:21 | 34.25214 | -85.07017 | 15373 ft | 400 kts | 150° |
| 2026-05-06 17:21 | 34.23021 | -85.04951 | 14875 ft | 397 kts | 149° |
| 2026-05-06 17:21 | 34.20844 | -85.02917 | 14387 ft | 394 kts | 149° |
| 2026-05-06 17:21 | 34.18683 | -85.00909 | 13893 ft | 391 kts | 149° |
| 2026-05-06 17:22 | 34.16536 | -84.98919 | 13407 ft | 388 kts | 149° |
| 2026-05-06 17:22 | 34.14413 | -84.96945 | 13024 ft | 381 kts | 149° |
| 2026-05-06 17:22 | 34.12323 | -84.94978 | 12946 ft | 378 kts | 149° |
| 2026-05-06 17:22 | 34.10280 | -84.93040 | 12957 ft | 377 kts | 148° |
| 2026-05-06 17:23 | 34.08213 | -84.91077 | 12960 ft | 377 kts | 148° |
| 2026-05-06 17:23 | 34.06155 | -84.89127 | 12962 ft | 378 kts | 148° |
| 2026-05-06 17:23 | 34.04079 | -84.87161 | 12966 ft | 377 kts | 148° |
| 2026-05-06 17:23 | 34.02008 | -84.85205 | 12966 ft | 377 kts | 148° |
| 2026-05-06 17:24 | 33.99959 | -84.83269 | 12969 ft | 377 kts | 148° |
| 2026-05-06 17:24 | 33.97886 | -84.81312 | 12975 ft | 376 kts | 148° |
| 2026-05-06 17:24 | 33.95838 | -84.79382 | 12975 ft | 377 kts | 148° |
| 2026-05-06 17:24 | 33.93775 | -84.77439 | 12973 ft | 376 kts | 148° |
| 2026-05-06 17:25 | 33.91731 | -84.75512 | 12741 ft | 370 kts | 148° |
| 2026-05-06 17:25 | 33.89704 | -84.73605 | 12246 ft | 368 kts | 148° |
| 2026-05-06 17:25 | 33.87684 | -84.71707 | 11997 ft | 370 kts | 148° |
| 2026-05-06 17:25 | 33.85652 | -84.69797 | 11978 ft | 371 kts | 148° |
| 2026-05-06 17:26 | 33.83619 | -84.67883 | 11977 ft | 372 kts | 148° |
| 2026-05-06 17:26 | 33.81609 | -84.65990 | 11968 ft | 356 kts | 148° |
| 2026-05-06 17:26 | 33.79753 | -84.64229 | 11963 ft | 328 kts | 148° |
| 2026-05-06 17:26 | 33.78027 | -84.62591 | 11960 ft | 300 kts | 149° |
| 2026-05-06 17:27 | 33.76445 | -84.61102 | 11960 ft | 283 kts | 150° |
| 2026-05-06 17:27 | 33.74961 | -84.59611 | 11906 ft | 276 kts | 141° |
| 2026-05-06 17:27 | 33.73832 | -84.57713 | 11602 ft | 284 kts | 121° |
| 2026-05-06 17:27 | 33.73218 | -84.55438 | 11262 ft | 291 kts | 100° |
| 2026-05-06 17:28 | 33.73118 | -84.53024 | 10975 ft | 291 kts | 90° |
| 2026-05-06 17:28 | 33.73174 | -84.50607 | 10685 ft | 289 kts | 89° |
| 2026-05-06 17:28 | 33.73235 | -84.48218 | 10359 ft | 286 kts | 90° |
| 2026-05-06 17:28 | 33.73270 | -84.45845 | 9919 ft | 283 kts | 91° |
| 2026-05-06 17:29 | 33.73283 | -84.43509 | 9436 ft | 281 kts | 91° |
| 2026-05-06 17:29 | 33.73285 | -84.41177 | 8963 ft | 278 kts | 91° |
| 2026-05-06 17:29 | 33.73285 | -84.38865 | 8491 ft | 274 kts | 91° |
| 2026-05-06 17:29 | 33.73284 | -84.36613 | 8040 ft | 271 kts | 91° |
| 2026-05-06 17:30 | 33.73283 | -84.34369 | 7571 ft | 267 kts | 92° |
| 2026-05-06 17:30 | 33.73283 | -84.32154 | 7105 ft | 264 kts | 92° |
| 2026-05-06 17:30 | 33.73282 | -84.29956 | 6643 ft | 260 kts | 92° |
| 2026-05-06 17:30 | 33.73284 | -84.27823 | 6197 ft | 256 kts | 92° |
| 2026-05-06 17:31 | 33.73287 | -84.25695 | 5744 ft | 253 kts | 92° |
| 2026-05-06 17:31 | 33.73290 | -84.23596 | 5278 ft | 250 kts | 92° |
| 2026-05-06 17:31 | 33.73148 | -84.21550 | 4795 ft | 245 kts | 112° |
| 2026-05-06 17:31 | 33.72282 | -84.19879 | 4309 ft | 232 kts | 146° |
| 2026-05-06 17:32 | 33.70893 | -84.19072 | 3821 ft | 218 kts | 175° |
| 2026-05-06 17:32 | 33.69416 | -84.18907 | 3354 ft | 214 kts | 184° |
| 2026-05-06 17:32 | 33.68008 | -84.19265 | 3014 ft | 206 kts | 215° |
| 2026-05-06 17:32 | 33.67044 | -84.20509 | 2993 ft | 204 kts | 239° |
| 2026-05-06 17:33 | 33.66368 | -84.22002 | 2982 ft | 201 kts | 243° |
| 2026-05-06 17:33 | 33.65779 | -84.23465 | 2962 ft | 188 kts | 244° |
| 2026-05-06 17:33 | 33.65306 | -84.24845 | 3035 ft | 175 kts | 252° |
| 2026-05-06 17:33 | 33.65072 | -84.26266 | 2999 ft | 174 kts | 261° |
| 2026-05-06 17:34 | 33.64987 | -84.27688 | 2991 ft | 162 kts | 265° |
| 2026-05-06 17:34 | 33.64970 | -84.28964 | 2862 ft | 147 kts | 266° |
| 2026-05-06 17:34 | 33.64968 | -84.30175 | 2692 ft | 143 kts | 266° |
| 2026-05-06 17:34 | 33.64967 | -84.31370 | 2504 ft | 142 kts | 266° |
| 2026-05-06 17:35 | 33.64965 | -84.32549 | 2322 ft | 141 kts | 266° |
| 2026-05-06 17:35 | 33.64964 | -84.33723 | 2144 ft | 141 kts | 266° |
| 2026-05-06 17:35 | 33.64963 | -84.34889 | 1966 ft | 140 kts | 266° |
| 2026-05-06 17:36 | 33.64959 | -84.37235 | 1595 ft | 139 kts | 265° |
| 2026-05-06 17:36 | 33.64951 | -84.38392 | 1419 ft | 139 kts | 267° |
| 2026-05-06 17:36 | 33.64955 | -84.39548 | 1257 ft | 138 kts | 266° |
| 2026-05-06 17:36 | 33.64956 | -84.40683 | 1070 ft | 135 kts | 265° |
| 2026-05-06 17:37 | 33.64953 | -84.41761 | 987 ft | 104 kts | 270° |
| 2026-05-06 17:37 | 33.64955 | -84.42336 | 987 ft | 53 kts | 270° |
| 2026-05-06 17:37 | 33.64919 | -84.42696 | 990 ft | 36 kts | 248° |
| 2026-05-06 17:37 | 33.64839 | -84.42856 | 992 ft | 12 kts | 242° |
| 2026-05-06 17:38 | 33.64775 | -84.42882 | 994 ft | 11 kts | 171° |
| 2026-05-06 17:38 | 33.64690 | -84.42874 | 994 ft | 14 kts | 174° |
| 2026-05-06 17:38 | 33.64593 | -84.42825 | 1001 ft | 11 kts | 153° |
| 2026-05-06 17:38 | 33.64539 | -84.42792 | 1006 ft | 10 kts | 153° |
| 2026-05-06 17:39 | 33.64466 | -84.42789 | 1006 ft | 12 kts | 230° |
| 2026-05-06 17:39 | 33.64460 | -84.42893 | 1006 ft | 13 kts | 270° |
| 2026-05-06 17:39 | 33.64459 | -84.43016 | 1006 ft | 15 kts | 270° |
| 2026-05-06 17:39 | 33.64459 | -84.43151 | 1006 ft | 17 kts | 270° |
| 2026-05-06 17:40 | 33.64459 | -84.43312 | 1006 ft | 20 kts | 270° |
| 2026-05-06 17:40 | 33.64459 | -84.43481 | 1006 ft | 20 kts | 269° |
| 2026-05-06 17:40 | 33.64459 | -84.43650 | 1006 ft | 20 kts | 270° |
| 2026-05-06 17:40 | 33.64437 | -84.43785 | 1006 ft | 13 kts | 201° |
| 2026-05-06 17:41 | 33.64342 | -84.43787 | 1006 ft | 14 kts | 180° |
| 2026-05-06 17:41 | 33.64242 | -84.43787 | 1006 ft | 14 kts | 180° |
| 2026-05-06 17:41 | 33.64147 | -84.43787 | 1006 ft | 9 kts | 180° |
| 2026-05-06 17:41 | 33.64122 | -84.43819 | 1006 ft | 6 kts | 272° |
| 2026-05-06 17:42 | 33.64124 | -84.43864 | 1006 ft | 3 kts | 270° |
| 2026-05-06 17:42 | 33.64124 | -84.43870 | 1006 ft | 0 kts | 270° |